Resolute, Canada
Current Conditions -  °F | °C
As of 4:00 PM on Monday 24 Nov 2014 (Local Time) from CYRB Reporting Station
Ice Pellets Ice Pellets  
Wind Chill: -45°   Ceiling: Unl
Heat Index: -18°   Visibility: 10mi
Dew Point: -24°   Wind: 18mph
Humidity: 76%   Direction: 340°NNW
Pressure: 29.53"   Gusts: 26mph
Location:  74.69°N, 94.91°W
Report Text: CYRB 242200Z 34016G23KT 10SM IC FEW015 M28/M31 A2953 RMK SC1 SC TR FROIN SLP013
Loading
Personal Weather Stations






























Interactive Weather Map New forecast layout! Learn more

10-Day Weather Forecast

Advertisements
Track Severe Weather on mobile